createdAt,value
2022-12-15T00:01:59.848Z,78.74
2022-12-15T00:04:44.696Z,78.91
2022-12-15T00:07:26.910Z,78.60
2022-12-15T00:10:09.108Z,78.62
2022-12-15T00:12:51.309Z,78.23
2022-12-15T00:15:33.663Z,78.53
2022-12-15T00:18:19.834Z,78.44
2022-12-15T00:21:04.619Z,78.12
2022-12-15T00:23:46.782Z,77.93
2022-12-15T00:26:28.999Z,77.89
2022-12-15T00:29:11.497Z,77.47
2022-12-15T00:31:53.813Z,77.78
2022-12-15T00:34:36.052Z,77.81
2022-12-15T00:37:20.894Z,78.21
2022-12-15T00:39:58.936Z,78.19
2022-12-15T00:42:30.456Z,78.57
2022-12-15T00:45:00.624Z,78.56
2022-12-15T00:47:27.897Z,78.40
2022-12-15T00:50:10.069Z,78.74
2022-12-15T00:52:54.944Z,78.87
2022-12-15T00:55:37.155Z,79.24
2022-12-15T00:58:19.372Z,79.92
2022-12-15T01:01:01.574Z,80.48
2022-12-15T01:03:43.923Z,80.75
2022-12-15T01:06:27.966Z,80.71
2022-12-15T01:09:13.469Z,80.93
2022-12-15T01:11:55.862Z,80.40
2022-12-15T01:14:38.094Z,80.59
2022-12-15T01:17:20.714Z,80.48
2022-12-15T01:20:02.920Z,80.79
2022-12-15T01:22:32.711Z,80.19
2022-12-15T01:25:05.061Z,79.63
2022-12-15T01:27:35.379Z,79.94
2022-12-15T01:30:05.214Z,80.01
2022-12-15T01:32:35.057Z,79.63
2022-12-15T01:35:04.914Z,79.30
2022-12-15T01:37:35.135Z,78.21
2022-12-15T01:40:21.563Z,79.67
2022-12-15T01:42:51.662Z,81.93
2022-12-15T01:45:49.932Z,82.64
2022-12-15T01:48:27.277Z,83.40
2022-12-15T01:51:04.096Z,84.15
2022-12-15T01:53:38.371Z,84.50
2022-12-15T01:56:12.307Z,83.82
2022-12-15T01:58:45.762Z,83.62
2022-12-15T02:01:15.545Z,83.34
2022-12-15T02:03:46.851Z,82.74
2022-12-15T02:06:18.085Z,82.51
2022-12-15T02:08:49.971Z,81.99
2022-12-15T02:11:46.308Z,81.47
2022-12-15T02:14:23.789Z,81.96
2022-12-15T02:17:07.594Z,81.84
2022-12-15T02:20:02.360Z,82.28
2022-12-15T02:22:44.329Z,82.83
2022-12-15T02:25:33.377Z,83.17
2022-12-15T02:28:11.154Z,83.46
2022-12-15T02:31:09.437Z,83.79
2022-12-15T02:33:47.717Z,84.63
2022-12-15T02:36:26.943Z,84.17
2022-12-15T02:38:56.800Z,84.85
2022-12-15T02:41:42.229Z,84.33
2022-12-15T02:44:15.920Z,84.76
2022-12-15T02:47:07.485Z,84.59
2022-12-15T02:49:49.884Z,84.68
2022-12-15T02:52:35.112Z,84.55
2022-12-15T02:55:18.479Z,84.65
2022-12-15T02:57:57.140Z,84.44
2022-12-15T03:00:27.399Z,85.16
2022-12-15T03:02:59.981Z,84.65
2022-12-15T03:05:29.897Z,84.38
2022-12-15T03:07:59.662Z,84.36
2022-12-15T03:10:29.659Z,84.67
2022-12-15T03:12:59.434Z,84.04
2022-12-15T03:15:34.889Z,84.18
2022-12-15T03:18:07.925Z,83.46
2022-12-15T03:20:38.868Z,83.13
2022-12-15T03:23:08.621Z,82.59
2022-12-15T03:25:38.363Z,82.74
2022-12-15T03:28:08.399Z,81.88
2022-12-15T03:30:38.317Z,81.42
2022-12-15T03:33:10.865Z,81.46
2022-12-15T03:35:40.633Z,81.71
2022-12-15T03:38:10.453Z,81.47
2022-12-15T03:40:40.197Z,81.14
2022-12-15T03:43:09.933Z,81.13
2022-12-15T03:45:39.746Z,80.88
2022-12-15T03:48:12.187Z,80.83
2022-12-15T03:50:41.933Z,80.56
2022-12-15T03:53:11.742Z,80.30
2022-12-15T03:55:41.523Z,80.09
2022-12-15T03:58:11.327Z,80.00
2022-12-15T04:00:41.595Z,80.15
2022-12-15T04:03:14.734Z,80.18
2022-12-15T04:05:44.578Z,80.95
2022-12-15T04:08:14.384Z,80.98
2022-12-15T04:10:44.144Z,81.13
2022-12-15T04:13:14.597Z,81.31
2022-12-15T04:15:44.377Z,81.10
2022-12-15T04:18:16.826Z,80.76
2022-12-15T04:20:44.071Z,80.56
2022-12-15T04:23:13.870Z,80.51
2022-12-15T04:25:56.085Z,80.79
2022-12-15T04:28:38.444Z,80.97
2022-12-15T04:31:23.618Z,81.26
2022-12-15T04:34:11.770Z,82.00
2022-12-15T04:36:55.595Z,82.23
2022-12-15T04:39:37.903Z,82.45
2022-12-15T04:42:20.659Z,83.07
2022-12-15T04:45:04.864Z,83.45
2022-12-15T04:47:47.098Z,83.76
2022-12-15T04:50:32.068Z,83.60
2022-12-15T04:53:22.624Z,83.67
2022-12-15T04:56:04.805Z,83.62
2022-12-15T04:58:47.002Z,83.68
2022-12-15T05:01:29.279Z,82.87
2022-12-15T05:04:11.579Z,82.48
2022-12-15T05:06:56.406Z,82.52
2022-12-15T05:09:38.621Z,82.39
2022-12-15T05:12:21.102Z,82.60
2022-12-15T05:15:03.355Z,82.65
2022-12-15T05:17:46.119Z,83.37
2022-12-15T05:20:28.396Z,82.49
2022-12-15T05:23:13.637Z,81.94
2022-12-15T05:25:55.939Z,81.90
2022-12-15T05:28:38.357Z,82.46
2022-12-15T05:31:21.955Z,82.92
2022-12-15T05:33:51.738Z,83.24
2022-12-15T05:36:21.532Z,82.70
2022-12-15T05:38:55.024Z,82.54
2022-12-15T05:41:25.025Z,82.42
2022-12-15T05:43:54.878Z,82.35
2022-12-15T05:46:24.900Z,81.92
2022-12-15T05:48:54.730Z,81.97
2022-12-15T05:51:24.478Z,81.68
2022-12-15T05:53:57.251Z,81.49
2022-12-15T05:56:28.551Z,81.39
2022-12-15T05:58:59.292Z,81.15
2022-12-15T06:01:31.046Z,80.86
2022-12-15T06:04:01.643Z,80.50
2022-12-15T06:06:35.256Z,80.77
2022-12-15T06:09:09.018Z,80.80
2022-12-15T06:11:42.139Z,80.69
2022-12-15T06:14:12.181Z,81.24
2022-12-15T06:16:50.046Z,81.14
2022-12-15T06:19:22.569Z,81.36
2022-12-15T06:21:56.169Z,81.32
2022-12-15T06:24:28.754Z,81.19
2022-12-15T06:26:59.415Z,80.99
2022-12-15T06:29:29.418Z,81.09
2022-12-15T06:31:59.299Z,81.20
2022-12-15T06:34:29.312Z,80.56
2022-12-15T06:37:00.134Z,80.95
2022-12-15T06:39:35.726Z,81.76
2022-12-15T06:42:05.663Z,82.65
2022-12-15T06:44:35.514Z,82.65
2022-12-15T06:47:10.287Z,82.54
2022-12-15T06:49:40.198Z,83.57
2022-12-15T06:52:11.107Z,83.69
2022-12-15T06:54:44.556Z,84.13
2022-12-15T06:57:18.164Z,84.37
2022-12-15T06:59:48.254Z,85.10
2022-12-15T07:02:26.890Z,84.83
2022-12-15T07:05:04.247Z,84.52
2022-12-15T07:07:34.141Z,84.34
2022-12-15T07:10:11.385Z,83.65
2022-12-15T07:12:41.182Z,83.08
2022-12-15T07:15:13.403Z,83.20
2022-12-15T07:17:43.581Z,82.69
2022-12-15T07:20:14.682Z,82.56
2022-12-15T07:22:46.498Z,82.11
2022-12-15T07:25:22.906Z,82.40
2022-12-15T07:27:53.775Z,83.14
2022-12-15T07:30:24.730Z,83.29
2022-12-15T07:32:54.609Z,82.84
2022-12-15T07:35:28.230Z,82.37
2022-12-15T07:37:59.129Z,82.50
2022-12-15T07:40:33.610Z,82.17
2022-12-15T07:43:04.402Z,82.14
2022-12-15T07:45:34.240Z,82.17
2022-12-15T07:48:04.105Z,82.06
2022-12-15T07:50:33.923Z,82.11
2022-12-15T07:53:03.739Z,81.95
2022-12-15T07:56:04.979Z,81.71
2022-12-15T07:58:26.124Z,82.04
2022-12-15T08:00:56.563Z,82.92
2022-12-15T08:03:26.668Z,84.52
2022-12-15T08:06:02.027Z,84.83
2022-12-15T08:08:35.870Z,84.96
2022-12-15T08:11:11.130Z,84.75
2022-12-15T08:16:33.364Z,84.96
2022-12-15T08:19:03.251Z,85.06
2022-12-15T08:21:33.915Z,84.82
2022-12-15T08:24:04.304Z,85.26
2022-12-15T08:26:37.930Z,85.53
2022-12-15T08:32:03.075Z,85.80
2022-12-15T08:34:33.183Z,85.87
2022-12-15T08:37:03.167Z,85.86
2022-12-15T08:39:33.029Z,85.55
2022-12-15T08:42:05.440Z,86.25
2022-12-15T08:44:35.405Z,86.18
2022-12-15T08:47:05.436Z,86.14
2022-12-15T08:49:35.263Z,85.34
2022-12-15T08:52:05.087Z,85.27
2022-12-15T08:54:35.175Z,85.20
2022-12-15T08:57:08.053Z,84.65
2022-12-15T08:59:37.926Z,84.40
2022-12-15T09:02:08.099Z,84.60
2022-12-15T09:04:40.923Z,84.91
2022-12-15T09:07:10.776Z,85.62
2022-12-15T09:09:41.513Z,84.73
2022-12-15T09:12:15.329Z,84.39
2022-12-15T09:14:45.216Z,84.41
2022-12-15T09:17:15.898Z,84.43
2022-12-15T09:19:45.851Z,84.39
2022-12-15T09:22:15.653Z,84.36
2022-12-15T09:24:45.445Z,84.20
2022-12-15T09:27:17.846Z,84.36
2022-12-15T09:29:47.656Z,84.67
2022-12-15T09:32:17.626Z,84.92
2022-12-15T09:34:47.569Z,85.54
2022-12-15T09:37:20.518Z,85.54
2022-12-15T09:39:50.540Z,85.86
2022-12-15T09:42:27.874Z,86.13
2022-12-15T09:45:04.808Z,86.13
2022-12-15T09:47:43.514Z,86.11
2022-12-15T09:50:15.640Z,85.72
2022-12-15T09:52:51.842Z,85.93
2022-12-15T09:55:25.475Z,85.80
2022-12-15T09:57:59.810Z,85.60
2022-12-15T10:00:35.900Z,86.01
2022-12-15T10:03:35.776Z,85.67
2022-12-15T10:06:17.185Z,85.77
2022-12-15T10:08:51.194Z,86.02
2022-12-15T10:11:28.991Z,86.48
2022-12-15T10:14:10.416Z,86.10
2022-12-15T10:16:53.542Z,86.10
2022-12-15T10:19:32.512Z,86.73
2022-12-15T10:22:02.825Z,86.90
2022-12-15T10:25:08.613Z,86.79
2022-12-15T10:27:44.198Z,86.95
2022-12-15T10:30:17.904Z,86.66
2022-12-15T10:32:53.691Z,85.96
2022-12-15T10:35:27.720Z,85.24
2022-12-15T10:38:01.675Z,84.49
2022-12-15T10:40:57.082Z,83.94
2022-12-15T10:43:31.209Z,84.36
2022-12-15T10:46:14.471Z,83.92
2022-12-15T10:48:48.567Z,84.25
2022-12-15T10:51:24.579Z,84.59
2022-12-15T10:53:56.723Z,84.96
2022-12-15T10:56:33.283Z,84.57
2022-12-15T10:59:06.325Z,85.26
2022-12-15T11:01:38.850Z,83.89
2022-12-15T11:04:28.428Z,83.51
2022-12-15T11:07:02.282Z,83.58
2022-12-15T11:09:36.857Z,84.13
2022-12-15T11:12:32.079Z,84.22
2022-12-15T11:15:01.979Z,84.60
2022-12-15T11:17:44.494Z,84.46
2022-12-15T11:20:23.530Z,84.47
2022-12-15T11:22:59.658Z,84.65
2022-12-15T11:25:38.039Z,84.54
2022-12-15T11:28:17.266Z,83.48
2022-12-15T11:30:52.132Z,84.01
2022-12-15T11:33:25.773Z,83.58
2022-12-15T11:36:10.054Z,84.02
2022-12-15T11:38:46.506Z,83.35
2022-12-15T11:41:31.072Z,83.98
2022-12-15T11:44:27.288Z,83.83
2022-12-15T11:47:10.160Z,83.15
2022-12-15T11:50:09.638Z,83.22
2022-12-15T11:52:53.117Z,82.56
2022-12-15T11:55:39.189Z,82.91
2022-12-15T11:58:48.632Z,83.26
2022-12-15T12:01:27.640Z,82.92
2022-12-15T12:04:08.046Z,83.20
2022-12-15T12:06:50.902Z,83.51
2022-12-15T12:09:33.119Z,83.64
2022-12-15T12:12:14.533Z,83.33
2022-12-15T12:15:00.643Z,82.32
2022-12-15T12:17:41.897Z,82.99
2022-12-15T12:20:19.456Z,83.09
2022-12-15T12:23:02.388Z,82.93
2022-12-15T12:25:37.827Z,83.18
2022-12-15T12:28:17.231Z,83.00
2022-12-15T12:30:50.432Z,82.52
2022-12-15T12:33:32.870Z,82.39
2022-12-15T12:36:07.354Z,82.42
2022-12-15T12:38:46.267Z,81.91
2022-12-15T12:41:30.135Z,81.96
2022-12-15T12:44:03.879Z,82.54
2022-12-15T12:46:39.631Z,82.51
2022-12-15T12:49:26.070Z,82.44
2022-12-15T12:51:59.605Z,82.52
2022-12-15T12:54:55.095Z,82.02
2022-12-15T12:57:50.121Z,82.49
2022-12-15T13:00:26.600Z,83.00
2022-12-15T13:03:17.918Z,82.58
2022-12-15T13:05:50.537Z,82.96
2022-12-15T13:08:53.607Z,83.25
2022-12-15T13:11:58.156Z,83.28
2022-12-15T13:14:38.460Z,83.93
2022-12-15T13:17:27.451Z,83.90
2022-12-15T13:20:18.679Z,83.36
2022-12-15T13:22:48.781Z,83.83
2022-12-15T13:25:38.136Z,83.55
2022-12-15T13:28:42.790Z,83.20
2022-12-15T13:31:49.765Z,83.18
2022-12-15T13:34:27.126Z,83.23
2022-12-15T13:37:05.545Z,82.90
2022-12-15T13:39:57.828Z,82.76
2022-12-15T13:42:56.266Z,82.72
2022-12-15T13:45:58.166Z,82.75
2022-12-15T13:48:34.744Z,83.09
2022-12-15T13:51:27.320Z,82.52
2022-12-15T13:54:02.147Z,83.28
2022-12-15T13:56:47.518Z,82.71
2022-12-15T13:59:29.843Z,82.54
2022-12-15T14:02:24.979Z,82.05
2022-12-15T14:05:21.119Z,81.94
2022-12-15T14:07:54.916Z,82.48
2022-12-15T14:10:28.199Z,82.59
2022-12-15T14:13:00.805Z,82.17
2022-12-15T14:15:33.787Z,82.43
2022-12-15T14:18:06.676Z,81.83
2022-12-15T14:20:43.346Z,81.83
2022-12-15T14:23:21.644Z,81.97
2022-12-15T14:26:07.234Z,81.99
2022-12-15T14:28:38.786Z,81.70
2022-12-15T14:31:14.139Z,81.06
2022-12-15T14:33:50.643Z,81.27
2022-12-15T14:36:23.482Z,84.17
2022-12-15T14:38:55.373Z,85.52
2022-12-15T14:41:27.830Z,81.73
2022-12-15T14:46:54.966Z,80.72
2022-12-15T14:49:31.137Z,80.46
2022-12-15T14:52:05.129Z,80.78
2022-12-15T14:54:38.341Z,80.29
2022-12-15T14:57:17.574Z,80.24
2022-12-15T14:59:51.343Z,80.89
2022-12-15T15:02:26.887Z,81.14
2022-12-15T15:03:06.023Z,80.97
2022-12-15T15:05:05.413Z,80.85
2022-12-15T15:07:35.965Z,80.63
2022-12-15T15:10:06.652Z,80.59
2022-12-15T15:12:47.217Z,80.06
2022-12-15T15:15:19.232Z,80.27
2022-12-15T15:17:53.798Z,80.25
2022-12-15T15:20:30.197Z,80.04
2022-12-15T15:23:16.001Z,79.55
2022-12-15T15:25:53.971Z,79.81
2022-12-15T15:28:28.064Z,79.87
2022-12-15T15:31:05.281Z,79.50
2022-12-15T15:33:35.484Z,79.48
2022-12-15T15:36:14.018Z,79.31
2022-12-15T15:38:46.772Z,79.59
2022-12-15T15:41:20.087Z,79.36
2022-12-15T15:43:50.023Z,79.59
2022-12-15T15:46:25.588Z,79.49
2022-12-15T15:48:58.639Z,79.43
2022-12-15T15:51:33.202Z,79.68
2022-12-15T15:54:05.605Z,80.25
2022-12-15T15:56:35.415Z,80.31
2022-12-15T15:59:13.541Z,80.38
2022-12-15T16:01:43.549Z,80.45
2022-12-15T16:04:13.467Z,80.36
2022-12-15T16:06:47.829Z,80.19
2022-12-15T16:09:18.998Z,80.37
2022-12-15T16:11:49.463Z,80.85
2022-12-15T16:14:20.390Z,81.05
2022-12-15T16:16:53.972Z,81.05
2022-12-15T16:19:23.989Z,80.81
2022-12-15T16:21:56.369Z,80.76
2022-12-15T16:24:26.135Z,81.04
2022-12-15T16:26:55.881Z,81.15
2022-12-15T16:29:25.973Z,80.78
2022-12-15T16:31:56.129Z,80.44
2022-12-15T16:34:25.997Z,80.41
2022-12-15T16:36:58.558Z,80.42
2022-12-15T16:39:31.915Z,80.47
2022-12-15T16:42:02.993Z,80.34
2022-12-15T16:44:33.198Z,80.27
2022-12-15T16:47:04.039Z,80.23
2022-12-15T16:49:39.853Z,80.32
2022-12-15T16:52:22.769Z,80.06
2022-12-15T16:54:53.742Z,79.98
2022-12-15T16:57:23.535Z,79.57
2022-12-15T16:59:57.113Z,80.06
2022-12-15T17:02:30.335Z,84.88
2022-12-15T17:05:00.214Z,80.29
2022-12-15T17:07:33.557Z,79.65
2022-12-15T17:10:08.370Z,79.30
2022-12-15T17:12:38.202Z,79.30
2022-12-15T17:15:21.126Z,80.87
2022-12-15T17:17:52.694Z,79.81
2022-12-15T17:20:30.976Z,79.44
2022-12-15T17:23:10.491Z,79.29
2022-12-15T17:28:37.849Z,79.92
2022-12-15T17:31:07.951Z,80.11
2022-12-15T17:33:37.978Z,79.90
2022-12-15T17:36:18.987Z,80.00
2022-12-15T17:38:55.921Z,79.90
2022-12-15T17:41:58.207Z,79.97
2022-12-15T17:44:39.290Z,79.83
2022-12-15T17:47:10.652Z,80.04
2022-12-15T17:49:41.898Z,80.20
2022-12-15T17:52:24.273Z,79.88
2022-12-15T17:54:59.259Z,79.73
2022-12-15T17:57:31.622Z,80.02
2022-12-15T18:00:02.030Z,80.40
2022-12-15T18:02:35.271Z,80.44
2022-12-15T18:05:07.539Z,80.71
2022-12-15T18:07:37.671Z,80.62
2022-12-15T18:10:24.051Z,80.33
2022-12-15T18:12:54.009Z,80.67
2022-12-15T18:15:25.565Z,80.47
2022-12-15T18:17:58.134Z,80.79
2022-12-15T18:20:34.921Z,80.44
2022-12-15T18:23:04.822Z,80.35
2022-12-15T18:25:37.150Z,80.05
2022-12-15T18:28:20.036Z,80.08
2022-12-15T18:30:52.252Z,80.11
2022-12-15T18:33:22.336Z,80.26
2022-12-15T18:35:54.151Z,79.98
2022-12-15T18:38:26.300Z,80.27
2022-12-15T18:41:02.188Z,79.67
2022-12-15T18:43:34.471Z,79.65
2022-12-15T18:46:05.419Z,79.76
2022-12-15T18:48:37.706Z,79.77
2022-12-15T18:51:18.029Z,81.12
2022-12-15T18:53:50.500Z,80.53
2022-12-15T18:56:25.243Z,80.06
2022-12-15T18:58:56.073Z,80.10
2022-12-15T19:01:26.008Z,80.17
2022-12-15T19:03:56.987Z,80.51
2022-12-15T19:06:35.042Z,80.35
2022-12-15T19:09:05.862Z,80.51
2022-12-15T19:11:38.209Z,80.93
2022-12-15T19:14:38.011Z,80.77
2022-12-15T19:17:26.273Z,81.07
2022-12-15T19:20:09.437Z,81.07
2022-12-15T19:22:41.234Z,80.76
2022-12-15T19:25:15.286Z,81.14
2022-12-15T19:27:50.063Z,80.92
2022-12-15T19:30:22.189Z,81.54
2022-12-15T19:32:52.734Z,81.56
2022-12-15T19:35:30.072Z,81.28
2022-12-15T19:38:03.962Z,91.68
2022-12-15T19:40:35.917Z,83.65
2022-12-15T19:43:08.432Z,83.27
2022-12-15T19:45:39.287Z,81.98
2022-12-15T19:48:10.122Z,81.86
2022-12-15T19:50:40.745Z,81.57
2022-12-15T19:53:17.556Z,80.79
2022-12-15T19:55:47.529Z,80.54
2022-12-15T19:58:30.961Z,80.24
2022-12-15T20:01:03.267Z,80.27
2022-12-15T20:03:34.122Z,79.68
2022-12-15T20:06:05.518Z,79.43
2022-12-15T20:08:38.295Z,79.36
2022-12-15T20:11:16.909Z,78.76
2022-12-15T20:13:51.058Z,78.72
2022-12-15T20:16:22.980Z,78.47
2022-12-15T20:18:56.259Z,78.81
2022-12-15T20:21:34.035Z,79.03
2022-12-15T20:24:09.402Z,79.44
2022-12-15T20:26:42.091Z,79.23
2022-12-15T20:29:27.250Z,78.69
2022-12-15T20:31:59.067Z,79.56
2022-12-15T20:34:29.874Z,79.25
2022-12-15T20:37:00.945Z,79.04
2022-12-15T20:39:32.835Z,78.94
2022-12-15T20:42:02.667Z,78.93
2022-12-15T20:44:36.055Z,78.53
2022-12-15T20:47:06.852Z,78.41
2022-12-15T20:49:37.704Z,78.32
2022-12-15T20:52:08.525Z,78.43
2022-12-15T20:54:39.403Z,78.32
2022-12-15T20:57:09.226Z,78.52
2022-12-15T20:59:42.635Z,78.53
2022-12-15T21:02:21.393Z,79.17
2022-12-15T21:04:53.422Z,74.47
2022-12-15T21:07:24.139Z,75.63
2022-12-15T21:09:56.098Z,76.69
2022-12-15T21:12:28.187Z,77.21
2022-12-15T21:15:01.570Z,77.64
2022-12-15T21:17:34.327Z,78.11
2022-12-15T21:20:10.029Z,78.27
2022-12-15T21:22:41.000Z,78.20
2022-12-15T21:25:22.766Z,77.64
2022-12-15T21:27:53.486Z,77.80
2022-12-15T21:30:26.326Z,77.98
2022-12-15T21:32:56.071Z,77.92
2022-12-15T21:38:31.581Z,78.47
2022-12-15T21:41:04.761Z,78.67
2022-12-15T21:43:38.067Z,78.29
2022-12-15T21:46:17.479Z,77.73
2022-12-15T21:49:00.146Z,78.28
2022-12-15T21:51:32.990Z,78.06
2022-12-15T21:54:03.054Z,78.20
2022-12-15T21:56:32.843Z,78.74
2022-12-15T21:59:03.630Z,78.34
2022-12-15T22:01:37.137Z,78.25
2022-12-15T22:04:18.039Z,78.30
2022-12-15T22:06:50.431Z,78.51
2022-12-15T22:09:22.897Z,78.09
2022-12-15T22:11:55.707Z,77.86
2022-12-15T22:14:28.511Z,77.91
2022-12-15T22:17:02.966Z,78.03
2022-12-15T22:19:32.721Z,78.17
2022-12-15T22:22:02.458Z,78.65
2022-12-15T22:24:32.165Z,78.46
2022-12-15T22:27:02.914Z,78.39
2022-12-15T22:29:35.502Z,78.15
2022-12-15T22:32:14.317Z,78.17
2022-12-15T22:34:44.548Z,78.08
2022-12-15T22:37:15.835Z,78.19
2022-12-15T22:39:45.679Z,78.47
2022-12-15T22:42:19.131Z,78.73
2022-12-15T22:44:51.068Z,79.43
2022-12-15T22:47:24.107Z,79.91
2022-12-15T22:49:55.005Z,80.31
2022-12-15T22:52:26.097Z,80.29
2022-12-15T22:54:58.344Z,80.65
2022-12-15T22:57:30.836Z,80.32
2022-12-15T23:00:07.449Z,79.78
2022-12-15T23:02:44.342Z,79.34
2022-12-15T23:05:19.423Z,79.22
2022-12-15T23:07:49.997Z,78.86
2022-12-15T23:10:35.926Z,78.34
2022-12-15T23:13:05.805Z,78.72
2022-12-15T23:15:48.403Z,78.78
2022-12-15T23:18:21.839Z,78.67
2022-12-15T23:20:54.025Z,78.71
2022-12-15T23:23:25.967Z,78.25
2022-12-15T23:25:57.697Z,78.24
2022-12-15T23:28:27.551Z,78.26
2022-12-15T23:30:58.211Z,77.80
2022-12-15T23:33:32.896Z,77.77
2022-12-15T23:36:05.243Z,77.91
2022-12-15T23:38:35.114Z,77.80
2022-12-15T23:41:04.958Z,77.84
2022-12-15T23:43:37.820Z,77.56
2022-12-15T23:46:09.679Z,77.92
2022-12-15T23:48:45.659Z,78.02
2022-12-15T23:51:18.442Z,78.14
2022-12-15T23:53:50.455Z,78.11
2022-12-15T23:56:24.027Z,77.90
2022-12-15T23:58:57.740Z,78.14
